Time;durP1;ratioP1;P1;durP2;ratioP2;P2;SDS_P1;SDS_P2;PMS_P1;PMS_P2;Temp;Humidity;BMP_temperature;BMP_pressure;BME280_temperature;BME280_humidity;BME280_pressure;Samples;Min_cycle;Max_cycle;Signal;HPM_P1;HPM_P2
2024/02/07 00:01:11;;;;;;;10.40;4.80;;;;;;;10.23;55.59;98910.63;104874;1262;61387;-55
2024/02/07 00:03:39;;;;;;;11.30;5.70;;;;;;;10.14;55.69;98903.68;107030;1263;62473;-56
2024/02/07 00:06:06;;;;;;;10.80;5.30;;;;;;;10.05;55.72;98906.36;103748;1263;59244;-55
2024/02/07 00:08:34;;;;;;;9.40;5.00;;;;;;;9.96;55.95;98905.52;104093;1262;59362;-56
2024/02/07 00:11:03;;;;;;;9.20;4.10;;;;;;;9.89;56.03;98902.22;103603;1265;63370;-55
2024/02/07 00:13:30;;;;;;;4.70;1.80;;;;;;;9.84;56.07;98902.20;103720;1266;62400;-56
2024/02/07 00:15:58;;;;;;;7.70;3.70;;;;;;;9.82;56.06;98896.88;105192;1263;63066;-55
2024/02/07 00:18:25;;;;;;;9.20;4.00;;;;;;;9.84;55.99;98893.55;104088;1258;59742;-56
2024/02/07 00:20:53;;;;;;;7.30;3.90;;;;;;;9.82;55.98;98887.43;104373;1263;59618;-55
2024/02/07 00:23:21;;;;;;;6.80;1.90;;;;;;;9.79;55.92;98890.94;105654;1259;64135;-58
2024/02/07 00:25:49;;;;;;;7.90;4.50;;;;;;;9.71;56.04;98891.74;104809;1259;60440;-54
2024/02/07 00:28:17;;;;;;;8.60;3.90;;;;;;;9.67;56.25;98889.90;105700;1260;63678;-59
2024/02/07 00:30:45;;;;;;;6.80;3.90;;;;;;;9.61;56.35;98888.73;104871;1259;59736;-55
2024/02/07 00:33:13;;;;;;;6.30;1.90;;;;;;;9.56;56.33;98884.85;104944;1263;60456;-56
2024/02/07 00:35:40;;;;;;;7.50;3.70;;;;;;;9.50;56.40;98882.83;105025;1263;65120;-56
2024/02/07 00:38:08;;;;;;;9.40;4.30;;;;;;;9.48;56.50;98886.29;104796;1263;60106;-57
2024/02/07 00:40:36;;;;;;;3.70;1.10;;;;;;;9.52;56.43;98883.52;104843;1260;62577;-55
2024/02/07 00:43:03;;;;;;;8.80;3.40;;;;;;;9.56;56.41;98880.60;105022;1258;59751;-57
2024/02/07 00:45:31;;;;;;;7.20;3.50;;;;;;;9.57;56.34;98881.89;104904;1259;59534;-56
2024/02/07 00:47:58;;;;;;;5.40;1.80;;;;;;;9.54;56.19;98886.10;104915;1263;71823;-55
2024/02/07 00:50:26;;;;;;;8.30;3.80;;;;;;;9.53;56.30;98883.54;103889;1259;63925;-57
2024/02/07 00:52:54;;;;;;;6.80;3.40;;;;;;;9.52;56.39;98875.23;103934;1260;62575;-56
2024/02/07 00:55:21;;;;;;;4.80;2.60;;;;;;;9.49;56.32;98867.77;103878;1259;59659;-56
2024/02/07 00:57:50;;;;;;;6.20;3.40;;;;;;;9.46;56.39;98866.35;104260;1263;59714;-55
2024/02/07 01:00:19;;;;;;;4.80;1.60;;;;;;;9.46;56.41;98862.02;104316;1259;64084;-56
2024/02/07 01:02:46;;;;;;;7.50;3.20;;;;;;;9.50;56.42;98864.05;108452;1257;61558;-57
2024/02/07 01:05:14;;;;;;;4.20;1.70;;;;;;;9.57;56.26;98861.24;108418;1258;62542;-55
2024/02/07 01:07:42;;;;;;;7.50;3.90;;;;;;;9.62;56.10;98854.77;108538;1260;58080;-56
2024/02/07 01:10:10;;;;;;;9.10;3.70;;;;;;;9.64;56.12;98852.36;104961;1262;59813;-56
2024/02/07 01:12:38;;;;;;;6.90;4.30;;;;;;;9.63;55.99;98853.14;105312;1259;64645;-56
2024/02/07 01:15:06;;;;;;;6.60;3.90;;;;;;;9.64;55.93;98847.30;103954;1262;61753;-61
2024/02/07 01:17:34;;;;;;;6.40;1.90;;;;;;;9.63;55.99;98845.06;103910;1260;74759;-56
2024/02/07 01:20:05;;;;;;;8.00;3.30;;;;;;;9.61;55.95;98842.67;104738;1261;59759;-57
2024/02/07 01:22:33;;;;;;;8.10;3.80;;;;;;;9.64;56.04;98833.94;106222;1260;59541;-58
2024/02/07 01:25:01;;;;;;;9.30;3.70;;;;;;;9.72;55.85;98828.10;104829;1259;62865;-56
2024/02/07 01:27:28;;;;;;;7.60;3.50;;;;;;;9.76;55.79;98829.44;108725;1259;61332;-57
2024/02/07 01:29:57;;;;;;;5.60;1.60;;;;;;;9.77;55.63;98824.02;104489;1259;62649;-57
2024/02/07 01:32:26;;;;;;;6.80;3.40;;;;;;;9.75;55.58;98821.09;106658;1262;59689;-57
2024/02/07 01:34:53;;;;;;;8.90;3.70;;;;;;;9.73;55.73;98819.93;104057;1258;60307;-55
2024/02/07 01:37:21;;;;;;;12.40;4.10;;;;;;;9.70;55.57;98823.27;104041;1259;62898;-55
2024/02/07 01:39:49;;;;;;;5.30;1.70;;;;;;;9.65;55.67;98815.33;103995;1259;61755;-55
2024/02/07 01:42:16;;;;;;;9.20;3.90;;;;;;;9.63;55.85;98810.55;104082;1260;62509;-55
2024/02/07 01:44:44;;;;;;;8.00;3.30;;;;;;;9.62;55.79;98805.11;104045;1259;61072;-54
2024/02/07 01:47:15;;;;;;;4.20;1.40;;;;;;;9.65;55.65;98796.71;104136;1259;61269;-55
2024/02/07 01:49:50;;;;;;;8.20;3.40;;;;;;;9.71;55.70;98801.20;104741;1260;62902;-55
2024/02/07 01:52:19;;;;;;;6.90;1.50;;;;;;;9.74;55.54;98806.52;104894;1263;60147;-56
2024/02/07 01:54:47;;;;;;;6.70;3.40;;;;;;;9.74;55.55;98802.48;105616;1260;64039;-56
2024/02/07 01:57:14;;;;;;;8.50;3.40;;;;;;;9.72;55.53;98802.83;104745;1259;59845;-55
2024/02/07 01:59:42;;;;;;;6.80;1.30;;;;;;;9.70;55.53;98798.02;104869;1262;59745;-56
2024/02/07 02:02:10;;;;;;;8.10;3.90;;;;;;;9.66;55.48;98799.24;104965;1262;64640;-56
2024/02/07 02:04:37;;;;;;;6.90;3.60;;;;;;;9.63;55.66;98796.64;104627;1259;61363;-53
2024/02/07 02:07:05;;;;;;;6.30;1.80;;;;;;;9.60;55.74;98799.38;104100;1259;62501;-56
2024/02/07 02:09:33;;;;;;;5.60;2.40;;;;;;;9.56;55.82;98801.48;104060;1263;59921;-54
2024/02/07 02:12:00;;;;;;;10.10;3.90;;;;;;;9.53;55.88;98798.52;104036;1258;59674;-58
2024/02/07 02:14:28;;;;;;;4.10;1.90;;;;;;;9.55;55.87;98797.77;103902;1263;65230;-55
2024/02/07 02:16:55;;;;;;;8.30;3.90;;;;;;;9.62;55.67;98792.02;104504;1259;62914;-54
2024/02/07 02:19:23;;;;;;;8.70;3.80;;;;;;;9.64;55.69;98792.52;104991;1261;63788;-55
2024/02/07 02:21:57;;;;;;;4.40;1.80;;;;;;;9.62;55.63;98791.64;104941;1260;59542;-59
2024/02/07 02:24:45;;;;;;;8.60;3.90;;;;;;;9.60;55.79;98785.55;104985;1263;60379;-57
2024/02/07 02:27:15;;;;;;;4.80;1.70;;;;;;;9.57;55.72;98785.30;104423;1259;62837;-57
2024/02/07 02:29:53;;;;;;;9.10;3.80;;;;;;;9.54;55.85;98780.59;103940;1260;61367;-56
2024/02/07 02:32:21;;;;;;;7.30;1.40;;;;;;;9.53;55.72;98776.40;108329;1257;65156;-55
2024/02/07 02:34:52;;;;;;;8.90;3.20;;;;;;;9.57;55.70;98776.05;108389;1259;60232;-54
2024/02/07 02:37:21;;;;;;;7.80;3.70;;;;;;;9.62;55.58;98775.48;108343;1259;60413;-55
2024/02/07 02:39:49;;;;;;;4.60;1.90;;;;;;;9.66;55.54;98778.77;108396;1259;62976;-57
2024/02/07 02:42:17;;;;;;;12.00;3.80;;;;;;;9.66;55.40;98775.79;108387;1259;60150;-56
2024/02/07 02:44:44;;;;;;;8.80;4.30;;;;;;;9.65;55.30;98776.04;104149;1262;62486;-55
2024/02/07 02:47:13;;;;;;;9.40;3.90;;;;;;;9.65;55.29;98766.13;103955;1261;59716;-55
2024/02/07 02:49:40;;;;;;;7.40;3.70;;;;;;;9.65;55.31;98765.21;103988;1262;60386;-55
2024/02/07 02:52:08;;;;;;;4.50;1.60;;;;;;;9.61;55.19;98767.36;104001;1259;64088;-54
2024/02/07 02:54:36;;;;;;;7.80;4.10;;;;;;;9.59;55.33;98763.06;103920;1265;61408;-56
2024/02/07 02:57:07;;;;;;;7.80;4.20;;;;;;;9.56;55.40;98757.25;103935;1259;62482;-56
2024/02/07 02:59:35;;;;;;;4.70;1.50;;;;;;;9.62;55.33;98760.63;103844;1259;60234;-55
2024/02/07 03:02:08;;;;;;;10.60;4.00;;;;;;;9.70;55.25;98755.67;107183;1258;59402;-56
2024/02/07 03:04:41;;;;;;;9.80;3.60;;;;;;;9.75;55.10;98751.39;104851;1257;64738;-57
2024/02/07 03:07:35;;;;;;;8.60;3.60;;;;;;;9.80;54.81;98757.76;108364;1259;60228;-58
2024/02/07 03:10:01;;;;;;;6.70;1.80;;;;;;;9.80;54.75;98755.13;108366;1259;64059;-58
2024/02/07 03:12:28;;;;;;;8.00;3.60;;;;;;;9.80;54.83;98753.39;108329;1259;59101;-56
2024/02/07 03:14:56;;;;;;;8.40;4.00;;;;;;;9.81;54.76;98748.73;108359;1260;59370;-55
2024/02/07 03:17:23;;;;;;;5.70;1.60;;;;;;;9.80;54.75;98745.50;108377;1259;62878;-55
2024/02/07 03:19:51;;;;;;;6.90;3.40;;;;;;;9.77;54.62;98745.46;108405;1257;68705;-56
2024/02/07 03:22:18;;;;;;;9.50;4.30;;;;;;;9.73;54.78;98742.65;108389;1259;63716;-55
2024/02/07 03:24:46;;;;;;;6.60;2.80;;;;;;;9.72;54.73;98740.52;108380;1259;57883;-56
2024/02/07 03:27:13;;;;;;;7.40;3.50;;;;;;;9.75;54.64;98739.31;108361;1259;60667;-55
2024/02/07 03:29:41;;;;;;;8.90;3.50;;;;;;;9.83;54.61;98731.71;108393;1259;64164;-54
2024/02/07 03:32:09;;;;;;;5.70;3.10;;;;;;;9.85;54.57;98729.34;108343;1260;60127;-55
2024/02/07 03:34:37;;;;;;;5.90;3.10;;;;;;;9.85;54.44;98722.90;108376;1259;63882;-55
2024/02/07 03:37:05;;;;;;;8.00;3.80;;;;;;;9.82;54.44;98723.87;105178;1263;59738;-57
2024/02/07 03:39:33;;;;;;;6.80;3.00;;;;;;;9.80;54.36;98711.85;108351;1258;57809;-56
2024/02/07 03:42:00;;;;;;;7.40;3.80;;;;;;;9.76;54.36;98705.44;105247;1260;63038;-56
2024/02/07 03:44:28;;;;;;;7.10;3.40;;;;;;;9.73;54.43;98699.09;103989;1259;61418;-57
2024/02/07 03:46:55;;;;;;;7.00;3.30;;;;;;;9.70;54.44;98699.27;104049;1263;64559;-56
2024/02/07 03:49:24;;;;;;;5.10;1.50;;;;;;;9.65;54.67;98703.04;104028;1263;59640;-56
2024/02/07 03:51:52;;;;;;;6.80;3.10;;;;;;;9.68;54.63;98702.41;103936;1262;59723;-57
2024/02/07 03:54:20;;;;;;;8.20;3.30;;;;;;;9.72;54.52;98695.90;104027;1259;62994;-58
2024/02/07 03:56:47;;;;;;;6.80;3.60;;;;;;;9.76;54.45;98694.40;108377;1259;62350;-60
2024/02/07 03:59:15;;;;;;;6.90;3.60;;;;;;;9.76;54.39;98695.80;108325;1257;65510;-56
2024/02/07 04:01:45;;;;;;;7.80;3.10;;;;;;;9.77;54.34;98694.70;108353;1259;60243;-58
2024/02/07 04:04:13;;;;;;;7.80;3.80;;;;;;;9.76;54.32;98699.13;107638;1262;58363;-54
2024/02/07 04:06:41;;;;;;;4.60;1.60;;;;;;;9.73;54.29;98699.94;104439;1259;65100;-56
2024/02/07 04:09:10;;;;;;;8.40;3.20;;;;;;;9.69;54.30;98694.08;104012;1260;61981;-57
2024/02/07 05:17:20;;;;;;;4.40;1.20;;;;;;;9.81;54.03;98615.61;104003;1263;62738;-53
2024/02/07 05:19:52;;;;;;;6.20;2.90;;;;;;;9.80;53.98;98620.60;108331;1260;66139;-57
2024/02/07 05:22:19;;;;;;;8.60;3.30;;;;;;;9.79;54.04;98623.55;108302;1261;59666;-57
2024/02/07 05:24:47;;;;;;;7.90;3.20;;;;;;;9.78;53.96;98619.24;107521;1263;60641;-56
2024/02/07 05:27:16;;;;;;;5.20;1.60;;;;;;;9.78;53.90;98617.38;103982;1260;64991;-56
2024/02/07 05:29:44;;;;;;;9.70;3.80;;;;;;;9.79;54.07;98619.15;103938;1263;61397;-57
2024/02/07 05:32:12;;;;;;;7.70;3.00;;;;;;;9.78;53.96;98621.52;104037;1259;64218;-59
2024/02/07 05:34:40;;;;;;;6.20;2.70;;;;;;;9.75;53.97;98622.17;103704;1264;60513;-56
2024/02/07 05:37:07;;;;;;;4.00;1.40;;;;;;;9.80;53.88;98618.92;103943;1263;60937;-57
2024/02/07 05:39:37;;;;;;;8.10;2.70;;;;;;;9.86;53.86;98618.98;108343;1262;65010;-57
2024/02/07 05:42:06;;;;;;;9.60;2.70;;;;;;;9.90;53.77;98613.33;108345;1262;61421;-54
2024/02/07 05:44:34;;;;;;;7.70;2.60;;;;;;;9.92;53.67;98610.63;108315;1259;63830;-55
2024/02/07 05:47:02;;;;;;;6.20;2.50;;;;;;;9.93;53.56;98609.79;108401;1261;58863;-56
2024/02/07 05:49:30;;;;;;;7.40;2.80;;;;;;;9.96;53.42;98616.39;108380;1258;58463;-55
2024/02/07 05:51:57;;;;;;;6.40;1.70;;;;;;;9.96;53.29;98608.41;108358;1260;64977;-55
2024/02/07 05:54:29;;;;;;;6.60;2.80;;;;;;;9.94;53.16;98608.51;108625;1254;61406;-55
2024/02/07 05:56:56;;;;;;;8.10;2.70;;;;;;;9.92;53.15;98608.86;108586;1260;63751;-55
2024/02/07 05:59:24;;;;;;;7.00;2.90;;;;;;;9.90;53.27;98605.58;108580;1260;59705;-54
2024/02/07 06:01:51;;;;;;;5.60;2.70;;;;;;;9.90;53.15;98608.60;106189;1258;60453;-56
2024/02/07 06:04:19;;;;;;;2.80;0.90;;;;;;;9.90;53.18;98607.19;104508;1260;63595;-61
2024/02/07 06:06:49;;;;;;;9.70;2.50;;;;;;;9.95;53.04;98603.45;108625;1257;62691;-59
2024/02/07 06:09:17;;;;;;;6.30;2.80;;;;;;;10.05;52.83;98603.85;108629;1256;62435;-59
2024/02/07 06:11:44;;;;;;;6.30;2.90;;;;;;;10.09;52.85;98597.95;107907;1260;60733;-59
2024/02/07 06:14:14;;;;;;;6.10;3.30;;;;;;;10.11;52.67;98593.57;105234;1254;62158;-58
2024/02/07 06:16:42;;;;;;;6.70;2.70;;;;;;;10.11;52.65;98590.59;108593;1260;65125;-57
2024/02/07 06:19:11;;;;;;;5.40;2.30;;;;;;;10.13;52.50;98591.71;108712;1254;61381;-56
2024/02/07 06:21:39;;;;;;;5.50;2.70;;;;;;;10.14;52.55;98595.80;104550;1259;62750;-58
2024/02/07 06:24:07;;;;;;;6.20;2.80;;;;;;;10.13;52.58;98591.38;108612;1257;60521;-58
2024/02/07 06:26:35;;;;;;;10.50;2.50;;;;;;;10.14;52.51;98592.04;108626;1254;59295;-56
2024/02/07 06:29:02;;;;;;;2.80;0.70;;;;;;;10.16;52.48;98588.64;108605;1260;67134;-55
2024/02/07 06:31:30;;;;;;;6.10;2.70;;;;;;;10.17;52.48;98587.10;108685;1259;60750;-56
2024/02/07 06:33:57;;;;;;;5.50;2.00;;;;;;;10.19;52.48;98588.10;107538;1260;62488;-58
2024/02/07 06:36:25;;;;;;;5.10;2.20;;;;;;;10.26;52.21;98594.44;104194;1254;60536;-59
2024/02/07 06:38:53;;;;;;;5.00;2.40;;;;;;;10.36;52.09;98585.29;104078;1260;60580;-60
2024/02/07 06:41:20;;;;;;;8.70;3.30;;;;;;;10.42;52.05;98586.02;104608;1254;64999;-60
2024/02/07 06:43:47;;;;;;;6.80;2.30;;;;;;;10.47;51.85;98587.16;104075;1258;63682;-55
2024/02/07 06:46:18;;;;;;;6.30;2.20;;;;;;;10.49;51.77;98588.99;104927;1257;63796;-59
2024/02/07 06:48:46;;;;;;;6.30;2.60;;;;;;;10.50;51.71;98583.39;104587;1260;60568;-60
2024/02/07 06:51:14;;;;;;;4.70;2.30;;;;;;;10.53;51.89;98586.30;104498;1259;61019;-57
2024/02/07 06:53:44;;;;;;;7.30;2.60;;;;;;;10.53;52.43;98584.68;104353;1254;64928;-58
2024/02/07 06:56:12;;;;;;;8.40;2.80;;;;;;;10.52;52.39;98587.91;104719;1260;61455;-56
2024/02/07 06:58:41;;;;;;;7.00;2.70;;;;;;;10.48;52.66;98581.90;104824;1259;65718;-53
2024/02/07 07:01:08;;;;;;;6.10;2.40;;;;;;;10.50;52.85;98577.66;108628;1254;59304;-57
2024/02/07 07:03:36;;;;;;;6.20;2.80;;;;;;;10.57;52.69;98575.11;108687;1254;58364;-60
2024/02/07 07:06:04;;;;;;;5.80;2.30;;;;;;;10.65;52.46;98573.78;107006;1255;63700;-60
2024/02/07 07:08:32;;;;;;;5.40;2.60;;;;;;;10.68;52.20;98573.12;105560;1255;60501;-57
2024/02/07 07:10:59;;;;;;;6.40;2.50;;;;;;;10.67;51.69;98581.64;105551;1260;64697;-58
2024/02/07 07:13:27;;;;;;;7.20;2.90;;;;;;;10.70;51.64;98573.23;105327;1259;60514;-66
2024/02/07 07:15:55;;;;;;;5.40;2.60;;;;;;;10.73;51.65;98576.17;105639;1258;60358;-67
2024/02/07 07:18:22;;;;;;;5.60;2.60;;;;;;;10.74;51.53;98577.02;106087;1260;65528;-66
2024/02/07 07:20:50;;;;;;;5.80;2.70;;;;;;;10.76;51.29;98575.73;105992;1263;61585;-64
2024/02/07 07:23:17;;;;;;;6.10;2.50;;;;;;;10.76;51.24;98577.92;105548;1260;62539;-57
2024/02/07 07:25:45;;;;;;;6.20;2.50;;;;;;;10.80;51.16;98570.36;105260;1260;61383;-56
2024/02/07 07:28:13;;;;;;;5.60;2.60;;;;;;;10.82;51.18;98575.45;105119;1260;60470;-58
2024/02/07 07:30:41;;;;;;;7.30;2.40;;;;;;;10.82;51.13;98561.58;105241;1260;76030;-57
2024/02/07 07:33:08;;;;;;;7.60;1.60;;;;;;;10.82;51.10;98568.11;105159;1260;60665;-60
2024/02/07 07:35:39;;;;;;;5.80;2.50;;;;;;;10.81;51.17;98569.77;105202;1254;64098;-56
2024/02/07 07:38:08;;;;;;;5.00;2.10;;;;;;;10.84;51.14;98572.71;104228;1256;63527;-58
2024/02/07 07:40:39;;;;;;;5.50;2.30;;;;;;;10.94;50.96;98574.09;104152;1262;60523;-56
2024/02/07 07:43:07;;;;;;;6.60;2.20;;;;;;;11.03;50.72;98581.70;108334;1255;68278;-57
2024/02/07 07:45:34;;;;;;;4.90;1.90;;;;;;;11.06;50.50;98575.78;104198;1255;60641;-56
2024/02/07 07:48:05;;;;;;;6.40;2.90;;;;;;;11.07;50.55;98568.08;104167;1254;64980;-57
2024/02/07 07:50:33;;;;;;;7.00;2.90;;;;;;;11.09;50.57;98567.14;105670;1254;63748;-56
2024/02/07 07:53:00;;;;;;;7.70;2.50;;;;;;;11.12;50.35;98562.45;104246;1254;60419;-56
2024/02/07 07:55:28;;;;;;;8.10;2.10;;;;;;;11.11;50.33;98561.30;104189;1256;65092;-56
2024/02/07 07:57:56;;;;;;;7.10;2.40;;;;;;;11.10;50.28;98564.20;108161;1257;60582;-63
2024/02/07 08:00:24;;;;;;;6.50;2.00;;;;;;;11.10;50.29;98563.23;106176;1255;64947;-61
2024/02/07 08:02:52;;;;;;;6.40;2.00;;;;;;;11.13;50.40;98553.44;106330;1257;61239;-60
2024/02/07 08:05:19;;;;;;;7.50;2.30;;;;;;;11.15;50.20;98554.61;106389;1258;60347;-66
2024/02/07 08:07:47;;;;;;;7.30;2.30;;;;;;;11.17;50.17;98546.48;106472;1254;67330;-64
2024/02/07 08:10:15;;;;;;;5.70;2.30;;;;;;;11.17;50.20;98537.52;106434;1254;64711;-65
2024/02/07 08:12:43;;;;;;;5.70;2.30;;;;;;;11.17;50.11;98541.70;106452;1258;62482;-65
2024/02/07 08:15:10;;;;;;;5.70;2.10;;;;;;;11.20;50.17;98542.77;106390;1257;61260;-61
2024/02/07 08:17:38;;;;;;;7.50;2.30;;;;;;;11.23;50.07;98537.92;106255;1254;60556;-63
2024/02/07 08:20:06;;;;;;;8.00;2.50;;;;;;;11.25;50.00;98535.02;105408;1257;67204;-62
2024/02/07 08:22:34;;;;;;;5.50;2.50;;;;;;;11.28;49.94;98536.98;108683;1254;60823;-59
2024/02/07 08:25:01;;;;;;;6.10;2.00;;;;;;;11.32;49.92;98534.79;108630;1254;66292;-61
2024/02/07 08:27:29;;;;;;;5.60;2.20;;;;;;;11.32;49.73;98533.49;108743;1254;60303;-70
2024/02/07 08:29:57;;;;;;;5.10;2.10;;;;;;;11.35;49.58;98530.23;108585;1253;59101;-63
2024/02/07 08:32:24;;;;;;;7.10;2.20;;;;;;;11.41;49.49;98531.01;107629;1258;76997;-61
2024/02/07 08:34:52;;;;;;;8.40;2.50;;;;;;;11.46;49.45;98520.55;105973;1257;72593;-67
2024/02/07 08:37:21;;;;;;;5.40;1.80;;;;;;;11.55;49.30;98520.46;108668;1254;66505;-64
2024/02/07 08:39:49;;;;;;;5.20;2.20;;;;;;;11.63;49.03;98520.38;108645;1260;58288;-63
2024/02/07 08:42:20;;;;;;;5.20;2.20;;;;;;;11.69;48.58;98525.13;107484;1254;60277;-62
2024/02/07 08:44:47;;;;;;;5.80;2.50;;;;;;;11.73;48.59;98518.20;107080;1257;67370;-68
2024/02/07 08:47:15;;;;;;;7.30;1.90;;;;;;;11.78;48.53;98522.89;106291;1254;74290;-67
2024/02/07 08:49:42;;;;;;;4.60;2.10;;;;;;;11.85;48.48;98523.88;106289;1260;64091;-64
2024/02/07 08:52:10;;;;;;;5.40;1.90;;;;;;;11.90;48.35;98524.83;106236;1254;60492;-65
2024/02/07 08:54:38;;;;;;;6.10;2.30;;;;;;;11.91;48.14;98522.46;105933;1254;60368;-55
2024/02/07 08:57:06;;;;;;;4.80;2.10;;;;;;;11.95;47.96;98524.67;105821;1258;67404;-61
2024/02/07 08:59:33;;;;;;;6.50;2.60;;;;;;;11.96;47.93;98518.05;106175;1254;61960;-69
2024/02/07 09:02:01;;;;;;;4.20;1.70;;;;;;;11.96;47.88;98508.55;106321;1254;67688;-63
2024/02/07 09:04:29;;;;;;;8.40;2.30;;;;;;;11.98;47.86;98497.84;106131;1254;60476;-64
2024/02/07 09:06:56;;;;;;;6.60;2.40;;;;;;;11.99;47.71;98492.42;106254;1254;62064;-65
2024/02/07 09:09:24;;;;;;;6.30;2.10;;;;;;;12.00;47.55;98492.48;106227;1260;66915;-60
2024/02/07 09:11:51;;;;;;;5.10;1.90;;;;;;;12.01;47.56;98487.55;106328;1258;60982;-65
2024/02/07 09:14:19;;;;;;;5.90;2.10;;;;;;;12.01;47.72;98484.80;106314;1259;66361;-58
2024/02/07 09:16:47;;;;;;;9.10;2.20;;;;;;;12.03;47.54;98477.36;104202;1259;64758;-61
2024/02/07 09:19:14;;;;;;;6.10;2.30;;;;;;;12.07;47.67;98471.72;104647;1256;60677;-62
2024/02/07 09:21:43;;;;;;;5.70;2.40;;;;;;;12.16;47.25;98472.98;106107;1254;72927;-61
2024/02/07 09:24:11;;;;;;;6.50;2.30;;;;;;;12.25;47.27;98476.73;106218;1257;62348;-64
2024/02/07 09:26:38;;;;;;;8.00;2.80;;;;;;;12.29;47.06;98478.20;106228;1256;67099;-60
2024/02/07 09:29:06;;;;;;;4.90;2.20;;;;;;;12.34;47.00;98481.33;106192;1255;60403;-63
2024/02/07 09:31:34;;;;;;;7.40;2.50;;;;;;;12.39;46.81;98475.75;106254;1254;60569;-70
2024/02/07 09:34:02;;;;;;;8.00;2.40;;;;;;;12.46;46.69;98464.58;104638;1254;76046;-63
2024/02/07 09:36:31;;;;;;;7.90;2.30;;;;;;;12.53;46.67;98461.69;106129;1260;63934;-59
2024/02/07 09:38:58;;;;;;;6.40;2.40;;;;;;;12.60;46.75;98467.19;104934;1254;62525;-63
2024/02/07 09:41:27;;;;;;;6.40;2.50;;;;;;;12.66;46.44;98483.38;104361;1260;60561;-62
2024/02/07 09:43:54;;;;;;;7.60;2.80;;;;;;;12.71;46.27;98463.44;106170;1254;60374;-62
2024/02/07 09:46:25;;;;;;;6.50;2.60;;;;;;;12.78;46.41;98462.92;105523;1254;76093;-65
2024/02/07 09:48:54;;;;;;;5.10;2.10;;;;;;;12.85;46.36;98461.77;106112;1254;61856;-65
2024/02/07 09:51:23;;;;;;;5.30;2.20;;;;;;;12.91;46.03;98455.60;106233;1254;66812;-62
2024/02/07 09:53:50;;;;;;;5.30;2.40;;;;;;;12.97;46.15;98457.98;106306;1257;63095;-69
2024/02/07 09:56:18;;;;;;;6.60;2.70;;;;;;;13.00;46.05;98454.58;106259;1255;60354;-61
2024/02/07 09:58:46;;;;;;;6.80;2.30;;;;;;;13.02;45.78;98460.73;105934;1254;76081;-66
2024/02/07 10:01:15;;;;;;;6.10;2.80;;;;;;;13.02;45.96;98455.77;106228;1257;60415;-64
2024/02/07 10:03:43;;;;;;;6.70;2.70;;;;;;;12.96;46.06;98451.27;106088;1254;74948;-66
2024/02/07 10:06:11;;;;;;;6.40;2.70;;;;;;;12.96;46.19;98443.17;106116;1254;60552;-68
2024/02/07 10:08:39;;;;;;;6.90;2.40;;;;;;;12.94;46.28;98447.45;106342;1257;60347;-66
2024/02/07 10:11:07;;;;;;;6.40;2.80;;;;;;;12.95;46.35;98433.19;106090;1261;63796;-65
2024/02/07 10:13:36;;;;;;;6.00;2.80;;;;;;;12.99;46.43;98419.55;106235;1257;62644;-71
2024/02/07 10:16:04;;;;;;;10.10;2.90;;;;;;;13.00;46.27;98420.33;106096;1256;64507;-62
2024/02/07 10:18:33;;;;;;;7.00;2.80;;;;;;;13.01;46.36;98419.35;106139;1261;60376;-67
2024/02/07 10:21:03;;;;;;;8.90;2.60;;;;;;;13.06;46.37;98422.21;106198;1254;60491;-70
2024/02/07 10:23:31;;;;;;;5.10;2.10;;;;;;;13.08;46.14;98425.16;106208;1257;64210;-61
2024/02/07 10:25:59;;;;;;;6.80;3.00;;;;;;;13.06;46.06;98422.41;105957;1254;74016;-62
2024/02/07 10:28:27;;;;;;;7.00;2.70;;;;;;;13.03;46.15;98419.59;106129;1257;63877;-65
2024/02/07 10:30:59;;;;;;;7.10;2.80;;;;;;;13.02;46.35;98424.48;105784;1261;60216;-64
2024/02/07 10:33:37;;;;;;;5.70;2.30;;;;;;;12.98;46.38;98427.05;106165;1254;59453;-68
2024/02/07 10:36:07;;;;;;;7.10;2.80;;;;;;;12.92;46.43;98445.18;106269;1256;65043;-64
2024/02/07 10:38:35;;;;;;;8.70;2.80;;;;;;;12.89;46.52;98437.00;106256;1256;60515;-61
2024/02/07 10:41:03;;;;;;;7.40;2.50;;;;;;;12.87;46.63;98428.91;106163;1257;62607;-66
2024/02/07 10:43:36;;;;;;;7.50;2.80;;;;;;;12.87;46.88;98424.44;106066;1260;60460;-64
2024/02/07 10:46:17;;;;;;;7.10;2.60;;;;;;;12.84;46.69;98433.90;106248;1254;60386;-71
2024/02/07 10:48:45;;;;;;;6.90;2.50;;;;;;;12.84;46.73;98423.27;108659;1254;67633;-62
2024/02/07 10:51:12;;;;;;;6.50;2.30;;;;;;;12.85;46.60;98426.37;108711;1254;62592;-66
2024/02/07 10:53:41;;;;;;;7.90;3.30;;;;;;;12.86;46.27;98423.45;108437;1256;73663;-66
2024/02/07 10:56:11;;;;;;;6.40;2.70;;;;;;;12.91;46.54;98418.11;108468;1256;62612;-64
2024/02/07 10:58:39;;;;;;;6.20;2.30;;;;;;;12.95;46.32;98414.91;108491;1260;59891;-67
2024/02/07 11:01:07;;;;;;;6.40;2.80;;;;;;;12.98;46.18;98422.86;108326;1255;65439;-64
2024/02/07 11:03:35;;;;;;;6.40;2.30;;;;;;;13.02;46.15;98422.34;108502;1254;63706;-63
2024/02/07 11:06:02;;;;;;;8.60;2.70;;;;;;;13.03;46.13;98421.25;106622;1257;64741;-64
2024/02/07 11:08:30;;;;;;;6.50;2.70;;;;;;;13.01;46.00;98416.84;106166;1257;60464;-64
2024/02/07 11:11:00;;;;;;;7.10;2.60;;;;;;;13.01;46.02;98419.97;106018;1257;62842;-65
2024/02/07 11:13:28;;;;;;;7.70;2.60;;;;;;;13.03;45.94;98416.30;106114;1260;68037;-62
2024/02/07 11:15:56;;;;;;;5.30;2.30;;;;;;;13.04;45.89;98414.52;105726;1260;61367;-64
2024/02/07 11:18:23;;;;;;;7.00;2.50;;;;;;;13.08;45.87;98413.34;106073;1257;62555;-67
2024/02/07 11:20:51;;;;;;;8.30;2.80;;;;;;;13.10;45.89;98418.12;105943;1256;60559;-60
2024/02/07 11:23:26;;;;;;;9.90;2.90;;;;;;;13.12;46.02;98409.36;106107;1258;62536;-66
2024/02/07 11:25:54;;;;;;;7.10;2.70;;;;;;;13.12;45.96;98405.11;106151;1260;74035;-66
2024/02/07 11:28:22;;;;;;;7.20;2.80;;;;;;;13.11;45.81;98407.24;105677;1257;62722;-66
2024/02/07 11:30:53;;;;;;;5.80;2.40;;;;;;;13.14;45.96;98404.87;106117;1260;66249;-68
2024/02/07 11:33:20;;;;;;;7.60;2.50;;;;;;;13.17;45.82;98404.38;106229;1256;60552;-65
2024/02/07 11:35:48;;;;;;;6.00;2.10;;;;;;;13.18;45.41;98409.38;106035;1260;61025;-66
2024/02/07 11:38:17;;;;;;;5.80;2.50;;;;;;;13.17;45.27;98421.48;105898;1262;63808;-63
2024/02/07 11:40:45;;;;;;;6.20;2.70;;;;;;;13.15;45.26;98410.54;106077;1254;62705;-66
2024/02/07 11:43:19;;;;;;;8.00;2.60;;;;;;;13.17;45.33;98399.25;105826;1259;63866;-62
2024/02/07 11:45:47;;;;;;;6.90;2.40;;;;;;;13.19;45.33;98404.06;106118;1257;60431;-66
2024/02/07 11:48:17;;;;;;;6.60;2.50;;;;;;;13.20;45.21;98400.62;106193;1260;60548;-62
2024/02/07 11:50:45;;;;;;;6.40;2.40;;;;;;;13.18;45.34;98399.92;106110;1257;78392;-62
2024/02/07 11:53:20;;;;;;;7.60;2.30;;;;;;;13.16;45.25;98406.60;106174;1257;65807;-62
2024/02/07 11:59:03;;;;;;;7.00;3.00;;;;;;;12.71;46.14;98400.57;103071;1291;603729;-68
2024/02/07 12:01:30;;;;;;;6.20;2.60;;;;;;;13.06;45.49;98393.25;105151;1266;61705;-60
2024/02/07 12:03:58;;;;;;;8.40;2.40;;;;;;;13.07;45.38;98393.30;104995;1266;59372;-62
2024/02/07 12:06:25;;;;;;;7.20;2.40;;;;;;;13.02;45.23;98387.33;105028;1266;64653;-65
2024/02/07 12:08:52;;;;;;;7.20;2.40;;;;;;;12.99;45.21;98389.65;105554;1266;63078;-64
2024/02/07 12:11:19;;;;;;;5.60;2.80;;;;;;;13.03;45.32;98382.98;105413;1264;255147;-63
2024/02/07 12:13:46;;;;;;;6.60;2.40;;;;;;;13.08;45.43;98379.75;105520;1265;60752;-65
2024/02/07 12:16:13;;;;;;;4.50;2.00;;;;;;;13.09;45.44;98381.38;105743;1267;59242;-68
2024/02/07 12:18:44;;;;;;;7.20;2.30;;;;;;;13.11;45.42;98385.30;105455;1263;62921;-67
2024/02/07 12:21:11;;;;;;;5.00;2.10;;;;;;;13.12;45.48;98389.41;106154;1260;71646;-63
2024/02/07 12:23:38;;;;;;;6.00;2.50;;;;;;;13.11;45.50;98390.07;105795;1258;65750;-64
2024/02/07 12:26:04;;;;;;;7.50;2.30;;;;;;;13.09;45.62;98385.00;106191;1260;59619;-66
2024/02/07 12:28:32;;;;;;;5.20;1.90;;;;;;;13.09;45.57;98386.63;106179;1260;59731;-67
2024/02/07 12:30:59;;;;;;;7.30;3.00;;;;;;;13.11;45.60;98384.09;106169;1256;74346;-61
2024/02/07 12:33:27;;;;;;;5.80;2.60;;;;;;;13.08;45.38;98387.42;106065;1260;64964;-67
2024/02/07 12:35:55;;;;;;;7.20;2.50;;;;;;;13.08;45.18;98377.80;107957;1256;62822;-67
2024/02/07 12:38:22;;;;;;;5.50;2.00;;;;;;;13.11;45.30;98376.23;105727;1256;59705;-60
2024/02/07 12:40:50;;;;;;;6.80;2.00;;;;;;;13.13;45.39;98378.30;108524;1256;59809;-54
2024/02/07 12:43:17;;;;;;;6.40;2.50;;;;;;;13.15;45.60;98375.10;108595;1256;66804;-59